createdAt,value
2022-08-19T00:00:59.958Z,19.25
2022-08-19T00:06:02.841Z,18.05
2022-08-19T00:11:07.130Z,20.95
2022-08-19T00:16:14.228Z,23.33
2022-08-19T00:21:17.058Z,20.05
2022-08-19T00:26:21.479Z,21.65
2022-08-19T00:31:26.311Z,21.10
2022-08-19T00:36:29.484Z,23.55
2022-08-19T00:46:37.664Z,24.73
2022-08-19T00:51:41.329Z,23.02
2022-08-19T00:56:47.118Z,25.65
2022-08-19T01:01:49.892Z,23.55
2022-08-19T01:06:52.841Z,26.75
2022-08-19T01:11:58.366Z,24.70
2022-08-19T01:17:01.568Z,24.80
2022-08-19T01:27:21.008Z,22.40
2022-08-19T01:32:33.629Z,26.40
2022-08-19T01:37:44.999Z,29.17
2022-08-19T01:42:50.032Z,26.35
2022-08-19T01:48:02.243Z,26.88
2022-08-19T01:53:08.286Z,29.13
2022-08-19T01:58:15.304Z,30.33
2022-08-19T02:03:18.373Z,29.83
2022-08-19T02:08:21.014Z,28.10
2022-08-19T02:13:26.327Z,28.80
2022-08-19T02:18:29.370Z,29.30
2022-08-19T02:23:33.416Z,31.50
2022-08-19T02:28:37.418Z,29.77
2022-08-19T02:33:40.213Z,32.40
2022-08-19T02:38:43.419Z,25.77
2022-08-19T02:44:29.101Z,27.20
2022-08-19T02:49:23.081Z,30.85
2022-08-19T02:54:25.662Z,35.17
2022-08-19T02:59:31.650Z,39.23
2022-08-19T03:04:34.310Z,34.08
2022-08-19T03:09:38.973Z,34.05
2022-08-19T03:14:42.961Z,33.22
2022-08-19T03:19:45.724Z,24.80
2022-08-19T03:24:48.526Z,26.23
2022-08-19T03:29:52.491Z,26.15
2022-08-19T03:34:55.074Z,28.30
2022-08-19T03:39:57.728Z,24.93
2022-08-19T03:45:01.991Z,26.70
2022-08-19T03:50:05.151Z,22.98
2022-08-19T03:55:08.766Z,24.98
2022-08-19T04:00:14.591Z,34.00
2022-08-19T04:05:17.378Z,31.65
2022-08-19T04:10:21.180Z,31.40
2022-08-19T04:15:25.169Z,29.35
2022-08-19T04:20:27.837Z,27.65
2022-08-19T04:25:30.475Z,26.33
2022-08-19T04:30:40.039Z,27.55
2022-08-19T04:35:45.187Z,27.33
2022-08-19T04:41:03.903Z,23.85
2022-08-19T04:46:08.965Z,22.52
2022-08-19T04:51:14.588Z,23.20
2022-08-19T04:56:22.631Z,21.58
2022-08-19T05:01:30.631Z,21.88
2022-08-19T05:06:34.665Z,22.50
2022-08-19T05:11:40.068Z,27.15
2022-08-19T05:16:44.151Z,28.55
2022-08-19T05:22:04.179Z,25.50
2022-08-19T05:27:07.488Z,26.40
2022-08-19T05:37:14.423Z,29.23
2022-08-19T05:42:17.623Z,27.52
2022-08-19T05:52:26.144Z,24.35
2022-08-19T05:57:29.829Z,26.73
2022-08-19T06:02:34.247Z,26.95
2022-08-19T06:07:37.745Z,26.23
2022-08-19T06:12:40.444Z,27.30
2022-08-19T06:17:46.208Z,28.17
2022-08-19T06:22:51.105Z,27.98
2022-08-19T06:28:14.179Z,29.63
2022-08-19T06:33:17.939Z,23.10
2022-08-19T06:38:24.488Z,25.20
2022-08-19T06:43:28.068Z,20.13
2022-08-19T06:48:35.553Z,20.35
2022-08-19T06:53:41.162Z,19.27
2022-08-19T06:58:45.529Z,18.73
2022-08-19T07:03:49.680Z,19.33
2022-08-19T07:08:53.125Z,18.77
2022-08-19T07:13:58.984Z,16.52
2022-08-19T07:19:12.550Z,19.00
2022-08-19T07:24:19.557Z,17.80
2022-08-19T07:29:25.871Z,17.15
2022-08-19T07:34:35.690Z,18.42
2022-08-19T07:39:40.345Z,16.65
2022-08-19T07:44:49.987Z,18.02
2022-08-19T07:49:54.854Z,16.90
2022-08-19T07:54:58.315Z,16.15
2022-08-19T08:00:01.518Z,16.80
2022-08-19T08:05:24.049Z,15.30
2022-08-19T08:10:26.937Z,15.73
2022-08-19T08:15:29.934Z,16.05
2022-08-19T08:20:34.022Z,15.20
2022-08-19T08:25:38.883Z,14.65
2022-08-19T08:30:45.117Z,19.08
2022-08-19T08:35:49.691Z,15.23
2022-08-19T08:40:57.472Z,13.95
2022-08-19T08:46:04.974Z,14.65
2022-08-19T08:51:13.349Z,14.52
2022-08-19T08:56:16.919Z,13.10
2022-08-19T09:01:20.195Z,11.90
2022-08-19T09:06:31.328Z,11.07
2022-08-19T09:11:46.359Z,9.87
2022-08-19T09:16:49.405Z,11.27
2022-08-19T09:21:53.624Z,9.55
2022-08-19T09:26:59.731Z,10.45
2022-08-19T09:32:02.473Z,11.90
2022-08-19T09:37:07.379Z,13.93
2022-08-19T09:42:13.358Z,16.23
2022-08-19T09:47:20.066Z,14.85
2022-08-19T09:52:32.685Z,16.15
2022-08-19T09:57:36.197Z,13.75
2022-08-19T10:02:38.970Z,14.82
2022-08-19T10:07:44.193Z,14.45
2022-08-19T10:12:48.848Z,16.30
2022-08-19T10:17:55.399Z,15.13
2022-08-19T10:23:00.453Z,15.18
2022-08-19T10:28:05.508Z,16.50
2022-08-19T10:33:14.975Z,12.30
2022-08-19T10:38:19.069Z,14.18
2022-08-19T10:43:36.833Z,16.15
2022-08-19T10:48:39.596Z,13.93
2022-08-19T10:53:45.406Z,13.65
2022-08-19T10:58:49.668Z,16.95
2022-08-19T11:03:52.433Z,17.42
2022-08-19T11:08:57.094Z,17.10
2022-08-19T11:14:00.690Z,17.17
2022-08-19T11:19:03.837Z,14.20
2022-08-19T11:24:10.605Z,16.42
2022-08-19T11:29:15.462Z,12.10
2022-08-19T11:34:20.959Z,14.23
2022-08-19T11:39:25.020Z,12.40
2022-08-19T11:44:31.402Z,10.23
2022-08-19T11:49:37.334Z,12.52
2022-08-19T11:54:41.543Z,9.02
2022-08-19T11:59:44.607Z,9.15
2022-08-19T12:04:47.356Z,8.35
2022-08-19T12:09:51.659Z,8.90
2022-08-19T12:14:59.110Z,12.65
2022-08-19T12:20:02.817Z,10.23
2022-08-19T12:25:08.154Z,10.57
2022-08-19T12:30:14.320Z,9.25
2022-08-19T12:35:17.011Z,9.20
2022-08-19T12:40:21.404Z,12.05
2022-08-19T12:45:24.899Z,14.50
2022-08-19T12:50:28.877Z,12.80
2022-08-19T12:55:33.112Z,14.93
2022-08-19T13:00:36.152Z,14.18
2022-08-19T13:05:38.935Z,13.52
2022-08-19T13:10:43.382Z,10.45
2022-08-19T13:15:46.618Z,10.43
2022-08-19T13:20:52.635Z,8.85
2022-08-19T13:26:00.986Z,7.82
2022-08-19T13:31:21.166Z,9.50
2022-08-19T13:36:23.794Z,8.95
2022-08-19T13:41:28.592Z,7.97
2022-08-19T13:46:32.187Z,8.77
2022-08-19T13:51:35.784Z,7.60
2022-08-19T13:56:44.239Z,7.78
2022-08-19T14:01:47.042Z,8.45
2022-08-19T14:06:49.811Z,8.50
2022-08-19T14:11:53.829Z,6.03
2022-08-19T14:16:56.496Z,8.65
2022-08-19T14:21:59.583Z,6.13
2022-08-19T14:27:04.470Z,7.15
2022-08-19T14:32:08.114Z,11.52
2022-08-19T14:37:18.249Z,6.53
2022-08-19T14:42:22.402Z,6.85
2022-08-19T14:47:25.051Z,6.78
2022-08-19T14:52:28.596Z,6.97
2022-08-19T14:57:32.704Z,7.57
2022-08-19T15:02:35.598Z,8.18
2022-08-19T15:07:38.683Z,7.35
2022-08-19T15:12:43.793Z,9.18
2022-08-19T15:17:47.484Z,6.95
2022-08-19T15:22:50.489Z,19.88
2022-08-19T15:27:54.921Z,26.63
2022-08-19T15:32:59.935Z,22.67
2022-08-19T15:38:03.244Z,24.35
2022-08-19T15:43:07.471Z,21.05
2022-08-19T15:48:10.095Z,21.27
2022-08-19T15:53:13.843Z,18.92
2022-08-19T15:58:37.404Z,19.15
2022-08-19T16:03:57.587Z,17.70
2022-08-19T16:09:03.921Z,16.42
2022-08-19T16:14:09.643Z,15.60
2022-08-19T16:19:13.529Z,15.02
2022-08-19T16:24:19.556Z,17.38
2022-08-19T16:29:33.429Z,19.10
2022-08-19T16:34:39.146Z,19.75
2022-08-19T16:39:44.312Z,16.23
2022-08-19T16:44:48.445Z,16.88
2022-08-19T16:49:54.165Z,14.50
2022-08-19T16:54:58.299Z,12.05
2022-08-19T17:00:08.308Z,11.75
2022-08-19T17:05:11.761Z,11.48
2022-08-19T17:10:14.754Z,9.70
2022-08-19T17:15:19.489Z,11.25
2022-08-19T17:20:22.534Z,10.57
2022-08-19T17:25:25.891Z,15.23
2022-08-19T17:30:31.813Z,16.55
2022-08-19T17:35:35.523Z,14.85
2022-08-19T17:40:38.762Z,15.90
2022-08-19T17:45:45.382Z,19.70
2022-08-19T17:50:48.057Z,16.90
2022-08-19T17:55:50.996Z,16.45
2022-08-19T18:00:55.627Z,18.08
2022-08-19T18:05:59.407Z,18.08
2022-08-19T18:11:02.066Z,18.33
2022-08-19T18:21:10.577Z,17.20
2022-08-19T18:26:13.578Z,17.50
2022-08-19T18:31:17.745Z,16.85
2022-08-19T18:36:50.048Z,18.08
2022-08-19T18:42:02.625Z,19.90
2022-08-19T18:47:24.684Z,17.02
2022-08-19T18:52:27.314Z,15.10
2022-08-19T18:57:30.092Z,18.42
2022-08-19T19:02:39.490Z,17.50
2022-08-19T19:07:42.618Z,18.00
2022-08-19T19:12:45.560Z,20.92
2022-08-19T19:17:50.048Z,19.63
2022-08-19T19:22:58.231Z,22.10
2022-08-19T19:28:02.559Z,21.50
2022-08-19T19:33:07.821Z,21.23
2022-08-19T19:38:10.605Z,21.10
2022-08-19T19:48:19.581Z,21.92
2022-08-19T19:53:22.780Z,17.80
2022-08-19T19:58:28.408Z,17.45
2022-08-19T20:03:33.693Z,17.63
2022-08-19T20:08:54.475Z,17.35
2022-08-19T20:13:57.079Z,18.10
2022-08-19T20:19:03.624Z,20.73
2022-08-19T20:24:09.833Z,16.48
2022-08-19T20:29:35.823Z,16.55
2022-08-19T20:34:37.314Z,19.65
2022-08-19T20:39:40.039Z,20.17
2022-08-19T20:44:42.940Z,19.20
2022-08-19T20:49:47.487Z,19.15
2022-08-19T20:54:50.196Z,18.42
2022-08-19T21:04:58.981Z,20.73
2022-08-19T21:10:02.924Z,17.98
2022-08-19T21:15:08.531Z,16.35
2022-08-19T21:20:13.090Z,17.23
2022-08-19T21:25:17.012Z,17.48
2022-08-19T21:30:19.872Z,16.77
2022-08-19T21:35:24.342Z,19.73
2022-08-19T21:40:27.704Z,19.52
2022-08-19T21:45:30.695Z,8.85
2022-08-19T21:50:35.297Z,11.68
2022-08-19T21:55:38.075Z,8.50
2022-08-19T22:00:41.026Z,8.60
2022-08-19T22:05:45.807Z,8.45
2022-08-19T22:10:49.633Z,8.73
2022-08-19T22:15:53.267Z,8.73
2022-08-19T22:20:57.217Z,10.82
2022-08-19T22:26:01.664Z,10.07
2022-08-19T22:31:04.566Z,10.57
2022-08-19T22:41:12.513Z,9.52
2022-08-19T22:46:17.592Z,10.30
2022-08-19T22:51:39.175Z,10.73
2022-08-19T22:56:43.426Z,11.07
2022-08-19T23:01:46.674Z,13.77
2022-08-19T23:06:52.951Z,12.07
2022-08-19T23:11:56.058Z,12.55
2022-08-19T23:16:59.315Z,13.85
2022-08-19T23:22:05.212Z,13.80
2022-08-19T23:27:25.540Z,13.98
2022-08-19T23:32:28.116Z,14.65
2022-08-19T23:37:32.101Z,14.48
2022-08-19T23:42:35.456Z,13.60
2022-08-19T23:47:41.344Z,14.63
2022-08-19T23:52:50.299Z,17.73
2022-08-19T23:57:53.164Z,18.00
